createdAt,value
2023-10-07T00:01:08.896Z,5.82
2023-10-07T00:03:39.732Z,5.10
2023-10-07T00:06:11.938Z,4.95
2023-10-07T00:08:40.317Z,5.55
2023-10-07T00:11:13.121Z,5.28
2023-10-07T00:13:43.833Z,5.72
2023-10-07T00:16:18.614Z,5.47
2023-10-07T00:18:49.548Z,5.40
2023-10-07T00:21:28.336Z,5.47
2023-10-07T00:23:58.870Z,5.53
2023-10-07T00:26:28.155Z,5.35
2023-10-07T00:29:02.649Z,5.47
2023-10-07T00:31:35.011Z,5.25
2023-10-07T00:34:15.757Z,5.10
2023-10-07T00:36:43.554Z,5.65
2023-10-07T00:39:21.352Z,5.70
2023-10-07T00:41:51.960Z,5.63
2023-10-07T00:44:24.107Z,6.03
2023-10-07T00:47:04.069Z,5.00
2023-10-07T00:49:42.900Z,5.50
2023-10-07T00:52:14.768Z,5.22
2023-10-07T00:54:48.841Z,5.82
2023-10-07T00:57:34.296Z,5.22
2023-10-07T01:00:27.391Z,5.78
2023-10-07T01:03:13.643Z,5.57
2023-10-07T01:06:00.002Z,5.32
2023-10-07T01:08:37.041Z,5.00
2023-10-07T01:11:16.818Z,5.60
2023-10-07T01:13:51.476Z,4.95
2023-10-07T01:16:29.135Z,5.20
2023-10-07T01:19:11.787Z,5.80
2023-10-07T01:21:57.097Z,5.60
2023-10-07T01:24:39.869Z,4.97
2023-10-07T01:27:43.608Z,5.35
2023-10-07T01:30:17.897Z,4.90
2023-10-07T01:32:58.738Z,5.22
2023-10-07T01:35:33.273Z,5.27
2023-10-07T01:38:01.682Z,5.30
2023-10-07T01:40:45.577Z,5.03
2023-10-07T01:43:13.449Z,4.70
2023-10-07T01:45:43.880Z,4.53
2023-10-07T01:48:11.491Z,4.72
2023-10-07T01:50:42.570Z,5.10
2023-10-07T01:53:18.400Z,4.25
2023-10-07T01:55:47.091Z,4.82
2023-10-07T01:58:16.321Z,4.63
2023-10-07T02:00:45.222Z,4.10
2023-10-07T02:03:24.633Z,5.07
2023-10-07T02:05:53.379Z,4.50
2023-10-07T02:08:23.415Z,4.38
2023-10-07T02:10:58.504Z,4.22
2023-10-07T02:13:31.265Z,4.30
2023-10-07T02:16:07.735Z,4.28
2023-10-07T02:18:36.903Z,4.30
2023-10-07T02:21:11.655Z,4.43
2023-10-07T02:23:44.297Z,4.28
2023-10-07T02:26:20.101Z,4.07
2023-10-07T02:28:54.089Z,4.25
2023-10-07T02:31:24.961Z,3.90
2023-10-07T02:33:53.991Z,4.70
2023-10-07T02:36:33.459Z,4.20
2023-10-07T02:39:20.689Z,5.32
2023-10-07T02:41:48.882Z,4.93
2023-10-07T02:44:27.634Z,5.45
2023-10-07T02:46:58.449Z,4.47
2023-10-07T02:51:59.846Z,4.63
2023-10-07T02:54:42.874Z,4.82
2023-10-07T02:57:23.008Z,4.88
2023-10-07T03:00:01.596Z,4.93
2023-10-07T03:02:50.030Z,5.00
2023-10-07T03:05:30.971Z,4.78
2023-10-07T03:08:07.777Z,4.53
2023-10-07T03:10:45.035Z,4.75
2023-10-07T03:13:17.326Z,4.72
2023-10-07T03:16:08.959Z,4.30
2023-10-07T03:18:39.576Z,4.60
2023-10-07T03:21:13.180Z,4.55
2023-10-07T03:23:49.751Z,4.47
2023-10-07T03:26:21.561Z,4.45
2023-10-07T03:28:57.062Z,4.25
2023-10-07T03:31:48.790Z,3.88
2023-10-07T03:34:16.492Z,4.20
2023-10-07T03:37:10.039Z,3.83
2023-10-07T03:40:06.658Z,4.72
2023-10-07T03:42:34.523Z,3.70
2023-10-07T03:45:02.067Z,3.63
2023-10-07T03:47:33.974Z,3.78
2023-10-07T03:50:05.716Z,4.13
2023-10-07T03:52:36.580Z,4.65
2023-10-07T03:55:04.553Z,4.57
2023-10-07T03:57:34.944Z,4.40
2023-10-07T04:00:02.536Z,3.90
2023-10-07T04:02:42.835Z,4.00
2023-10-07T04:05:11.947Z,3.70
2023-10-07T04:07:40.981Z,5.00
2023-10-07T04:10:14.674Z,5.35
2023-10-07T04:12:42.154Z,5.30
2023-10-07T04:15:14.302Z,5.13
2023-10-07T04:17:44.605Z,4.75
2023-10-07T04:20:25.851Z,4.75
2023-10-07T04:23:01.737Z,4.50
2023-10-07T04:25:33.254Z,4.65
2023-10-07T04:28:07.272Z,4.60
2023-10-07T04:30:48.898Z,4.30
2023-10-07T04:33:20.049Z,4.95
2023-10-07T04:35:51.802Z,4.63
2023-10-07T04:38:42.424Z,4.38
2023-10-07T04:41:25.113Z,4.70
2023-10-07T04:44:00.524Z,4.90
2023-10-07T04:46:43.938Z,5.15
2023-10-07T04:49:14.537Z,5.15
2023-10-07T04:51:42.514Z,4.73
2023-10-07T04:54:12.223Z,4.65
2023-10-07T04:56:48.455Z,4.70
2023-10-07T04:59:18.566Z,5.15
2023-10-07T05:01:57.286Z,4.57
2023-10-07T05:04:26.306Z,4.35
2023-10-07T05:06:55.954Z,4.85
2023-10-07T05:09:24.459Z,4.60
2023-10-07T05:11:52.024Z,4.57
2023-10-07T05:14:19.660Z,5.00
2023-10-07T05:16:48.628Z,4.38
2023-10-07T05:19:24.065Z,4.35
2023-10-07T05:22:12.242Z,4.07
2023-10-07T05:24:39.983Z,4.32
2023-10-07T05:27:07.456Z,3.97
2023-10-07T05:29:37.114Z,4.57
2023-10-07T05:32:04.949Z,3.97
2023-10-07T05:34:34.928Z,3.97
2023-10-07T05:37:05.728Z,5.18
2023-10-07T05:39:34.456Z,4.72
2023-10-07T05:42:04.609Z,4.63
2023-10-07T05:44:33.128Z,3.92
2023-10-07T05:47:04.086Z,4.53
2023-10-07T05:49:32.503Z,4.82
2023-10-07T05:52:00.246Z,5.10
2023-10-07T05:54:29.800Z,4.88
2023-10-07T05:56:57.594Z,4.72
2023-10-07T05:59:26.694Z,4.57
2023-10-07T06:01:54.330Z,5.45
2023-10-07T06:04:22.044Z,4.50
2023-10-07T06:06:51.231Z,4.72
2023-10-07T06:09:19.122Z,4.50
2023-10-07T06:11:49.694Z,4.78
2023-10-07T06:14:19.939Z,4.65
2023-10-07T06:16:47.548Z,4.97
2023-10-07T06:19:14.959Z,4.90
2023-10-07T06:21:52.313Z,5.03
2023-10-07T06:24:23.270Z,4.78
2023-10-07T06:26:54.925Z,5.07
2023-10-07T06:29:22.933Z,4.78
2023-10-07T06:32:14.492Z,5.05
2023-10-07T06:34:46.241Z,4.95
2023-10-07T06:41:36.529Z,5.10
2023-10-07T06:44:05.098Z,5.00
2023-10-07T06:46:43.410Z,4.75
2023-10-07T06:49:20.963Z,4.72
2023-10-07T06:51:54.574Z,5.18
2023-10-07T06:54:24.618Z,4.88
2023-10-07T06:56:55.573Z,4.70
2023-10-07T06:59:29.531Z,5.95
2023-10-07T07:02:12.642Z,4.40
2023-10-07T07:04:42.936Z,4.45
2023-10-07T07:07:12.023Z,5.20
2023-10-07T07:09:51.891Z,4.90
2023-10-07T07:12:24.260Z,5.00
2023-10-07T07:14:52.928Z,4.82
2023-10-07T07:17:31.033Z,4.50
2023-10-07T07:20:08.713Z,4.33
2023-10-07T07:22:40.666Z,4.40
2023-10-07T07:25:13.952Z,5.38
2023-10-07T07:27:49.370Z,4.35
2023-10-07T07:30:21.712Z,4.85
2023-10-07T07:32:58.090Z,4.65
2023-10-07T07:35:40.177Z,4.65
2023-10-07T07:38:24.297Z,4.97
2023-10-07T07:41:08.299Z,5.00
2023-10-07T07:43:38.785Z,4.43
2023-10-07T07:46:18.982Z,4.53
2023-10-07T07:48:47.130Z,5.15
2023-10-07T07:51:18.667Z,4.80
2023-10-07T07:53:46.545Z,4.70
2023-10-07T07:56:14.356Z,4.97
2023-10-07T07:58:53.401Z,4.68
2023-10-07T08:01:24.806Z,4.90
2023-10-07T08:03:57.198Z,4.70
2023-10-07T08:06:27.188Z,4.28
2023-10-07T08:08:56.680Z,4.32
2023-10-07T08:11:24.687Z,4.78
2023-10-07T08:13:54.747Z,4.50
2023-10-07T08:16:22.402Z,4.00
2023-10-07T08:18:51.851Z,4.68
2023-10-07T08:21:19.268Z,4.22
2023-10-07T08:23:47.749Z,4.40
2023-10-07T08:26:21.922Z,4.72
2023-10-07T08:28:55.558Z,4.75
2023-10-07T08:31:39.216Z,4.00
2023-10-07T08:34:08.047Z,4.38
2023-10-07T08:36:40.603Z,4.50
2023-10-07T08:39:10.593Z,4.53
2023-10-07T08:41:51.618Z,4.57
2023-10-07T08:44:22.194Z,4.80
2023-10-07T08:46:50.806Z,3.65
2023-10-07T08:49:26.766Z,3.95
2023-10-07T08:51:56.037Z,3.90
2023-10-07T08:54:46.078Z,4.13
2023-10-07T08:57:20.367Z,4.50
2023-10-07T08:59:53.834Z,3.92
2023-10-07T09:02:28.615Z,4.40
2023-10-07T09:04:59.308Z,4.60
2023-10-07T09:07:37.728Z,4.07
2023-10-07T09:10:18.270Z,4.07
2023-10-07T09:12:51.858Z,4.50
2023-10-07T09:15:27.914Z,3.78
2023-10-07T09:18:05.826Z,4.53
2023-10-07T09:20:37.902Z,4.40
2023-10-07T09:23:16.926Z,4.40
2023-10-07T09:25:53.163Z,3.55
2023-10-07T09:28:37.094Z,4.18
2023-10-07T09:31:09.683Z,4.18
2023-10-07T09:33:43.075Z,4.30
2023-10-07T09:36:25.014Z,4.47
2023-10-07T09:39:12.166Z,4.20
2023-10-07T09:41:40.977Z,3.97
2023-10-07T09:44:21.846Z,4.65
2023-10-07T09:46:54.254Z,4.47
2023-10-07T09:49:29.646Z,4.20
2023-10-07T09:52:16.741Z,5.00
2023-10-07T09:55:24.785Z,4.15
2023-10-07T09:58:25.952Z,6.25
2023-10-07T10:01:06.874Z,4.95
2023-10-07T10:04:13.239Z,5.85
2023-10-07T10:07:23.297Z,5.10
2023-10-07T10:10:14.860Z,5.35
2023-10-07T10:15:39.356Z,5.05
2023-10-07T10:18:28.766Z,5.18
2023-10-07T10:21:06.834Z,4.70
2023-10-07T10:23:34.739Z,5.50
2023-10-07T10:26:16.098Z,5.80
2023-10-07T10:28:57.319Z,6.88
2023-10-07T10:31:26.052Z,6.70
2023-10-07T10:33:53.923Z,7.38
2023-10-07T10:36:24.574Z,8.05
2023-10-07T10:38:54.797Z,8.55
2023-10-07T10:41:29.115Z,7.90
2023-10-07T10:44:11.829Z,7.65
2023-10-07T10:46:49.818Z,7.40
2023-10-07T10:49:19.521Z,7.25
2023-10-07T10:51:56.006Z,7.43
2023-10-07T10:54:24.618Z,6.85
2023-10-07T10:57:01.801Z,6.32
2023-10-07T10:59:38.466Z,6.88
2023-10-07T11:02:06.964Z,6.00
2023-10-07T11:04:34.747Z,5.95
2023-10-07T11:07:02.442Z,6.80
2023-10-07T11:09:37.624Z,6.45
2023-10-07T11:12:10.348Z,5.95
2023-10-07T11:14:39.808Z,5.90
2023-10-07T11:17:10.313Z,6.10
2023-10-07T11:19:48.665Z,5.85
2023-10-07T11:22:20.722Z,6.55
2023-10-07T11:24:52.128Z,6.07
2023-10-07T11:27:25.150Z,5.55
2023-10-07T11:29:59.698Z,6.32
2023-10-07T11:32:31.704Z,6.50
2023-10-07T11:35:00.901Z,5.90
2023-10-07T11:37:29.590Z,5.90
2023-10-07T11:40:01.568Z,5.88
2023-10-07T11:42:30.426Z,6.43
2023-10-07T11:44:58.563Z,5.93
2023-10-07T11:47:26.604Z,5.80
2023-10-07T11:49:56.039Z,5.82
2023-10-07T11:52:25.125Z,5.05
2023-10-07T11:54:52.780Z,5.60
2023-10-07T11:57:20.448Z,5.43
2023-10-07T11:59:47.858Z,4.85
2023-10-07T12:02:18.581Z,5.47
2023-10-07T12:04:48.870Z,5.30
2023-10-07T12:07:17.848Z,4.88
2023-10-07T12:09:48.409Z,4.32
2023-10-07T12:12:18.501Z,5.10
2023-10-07T12:14:49.117Z,4.70
2023-10-07T12:17:17.997Z,4.93
2023-10-07T12:19:46.004Z,4.80
2023-10-07T12:22:14.708Z,4.78
2023-10-07T12:24:45.600Z,4.47
2023-10-07T12:27:14.174Z,6.25
2023-10-07T12:29:41.620Z,8.77
2023-10-07T12:32:11.535Z,8.32
2023-10-07T12:34:48.974Z,8.02
2023-10-07T12:37:16.921Z,6.88
2023-10-07T12:39:50.403Z,7.15
2023-10-07T12:42:19.672Z,6.72
2023-10-07T12:44:47.562Z,7.05
2023-10-07T12:47:15.866Z,7.88
2023-10-07T12:49:46.903Z,6.57
2023-10-07T12:52:17.343Z,6.43
2023-10-07T12:54:47.650Z,6.47
2023-10-07T12:57:16.872Z,6.88
2023-10-07T12:59:45.457Z,6.10
2023-10-07T13:02:18.546Z,5.72
2023-10-07T13:04:50.434Z,6.10
2023-10-07T13:07:19.138Z,5.50
2023-10-07T13:09:49.844Z,5.38
2023-10-07T13:12:23.460Z,4.80
2023-10-07T13:14:52.329Z,5.28
2023-10-07T13:17:21.898Z,5.13
2023-10-07T13:19:53.197Z,5.32
2023-10-07T13:22:20.817Z,5.63
2023-10-07T13:24:48.254Z,4.82
2023-10-07T13:27:21.292Z,5.03
2023-10-07T13:29:49.276Z,5.40
2023-10-07T13:32:19.183Z,4.70
2023-10-07T13:34:47.736Z,4.60
2023-10-07T13:37:15.224Z,4.30
2023-10-07T13:39:42.976Z,4.75
2023-10-07T13:42:14.489Z,4.22
2023-10-07T13:44:44.329Z,4.10
2023-10-07T13:47:12.651Z,4.07
2023-10-07T13:49:43.102Z,4.47
2023-10-07T13:52:10.982Z,4.30
2023-10-07T13:54:48.434Z,4.22
2023-10-07T13:57:20.578Z,4.05
2023-10-07T13:59:48.290Z,4.38
2023-10-07T14:02:21.178Z,4.40
2023-10-07T14:04:54.395Z,4.18
2023-10-07T14:07:22.035Z,4.18
2023-10-07T14:09:50.586Z,4.10
2023-10-07T14:12:18.363Z,4.03
2023-10-07T14:14:53.640Z,3.80
2023-10-07T14:17:21.849Z,4.10
2023-10-07T14:19:50.004Z,3.95
2023-10-07T14:22:20.334Z,4.00
2023-10-07T14:24:47.798Z,4.18
2023-10-07T14:27:18.352Z,4.10
2023-10-07T14:29:48.116Z,3.87
2023-10-07T14:32:15.657Z,3.85
2023-10-07T14:34:43.384Z,4.68
2023-10-07T14:37:11.717Z,3.55
2023-10-07T14:39:54.447Z,3.63
2023-10-07T14:42:27.808Z,4.03
2023-10-07T14:44:56.628Z,3.90
2023-10-07T14:47:25.639Z,3.78
2023-10-07T14:49:54.815Z,3.60
2023-10-07T14:52:23.763Z,3.42
2023-10-07T14:54:51.315Z,3.60
2023-10-07T14:57:22.487Z,3.38
2023-10-07T14:59:52.293Z,4.15
2023-10-07T15:02:20.003Z,4.10
2023-10-07T15:04:54.650Z,3.42
2023-10-07T15:07:22.121Z,4.00
2023-10-07T15:09:51.759Z,3.63
2023-10-07T15:12:19.249Z,3.95
2023-10-07T15:14:47.180Z,3.55
2023-10-07T15:17:16.982Z,3.85
2023-10-07T15:19:53.619Z,3.50
2023-10-07T15:22:21.728Z,3.25
2023-10-07T15:24:50.573Z,3.45
2023-10-07T15:27:18.253Z,3.25
2023-10-07T15:29:45.724Z,3.42
2023-10-07T15:32:14.603Z,3.45
2023-10-07T15:34:43.351Z,3.42
2023-10-07T15:37:11.043Z,3.40
2023-10-07T15:39:38.396Z,3.40
2023-10-07T15:42:10.177Z,4.00
2023-10-07T15:44:37.667Z,4.10
2023-10-07T15:47:05.656Z,3.50
2023-10-07T15:49:33.217Z,3.33
2023-10-07T15:52:03.353Z,3.20
2023-10-07T15:54:30.783Z,3.72
2023-10-07T15:56:58.521Z,3.40
2023-10-07T15:59:26.083Z,3.53
2023-10-07T16:01:53.628Z,3.78
2023-10-07T16:04:22.291Z,3.88
2023-10-07T16:06:50.024Z,4.35
2023-10-07T16:09:20.189Z,3.83
2023-10-07T16:11:50.258Z,4.40
2023-10-07T16:14:19.986Z,4.40
2023-10-07T16:16:49.716Z,4.32
2023-10-07T16:19:17.427Z,4.05
2023-10-07T16:21:45.122Z,4.40
2023-10-07T16:24:13.253Z,4.47
2023-10-07T16:26:47.014Z,4.50
2023-10-07T16:29:16.869Z,4.43
2023-10-07T16:31:44.683Z,4.35
2023-10-07T16:34:13.008Z,4.57
2023-10-07T16:36:40.591Z,3.97
2023-10-07T16:39:10.212Z,4.88
2023-10-07T16:41:38.498Z,5.25
2023-10-07T16:44:06.684Z,4.95
2023-10-07T16:46:35.423Z,4.35
2023-10-07T16:49:02.914Z,4.80
2023-10-07T16:51:30.472Z,4.70
2023-10-07T16:53:57.833Z,3.90
2023-10-07T16:56:27.975Z,5.00
2023-10-07T16:58:55.601Z,4.07
2023-10-07T17:01:23.238Z,4.68
2023-10-07T17:03:51.199Z,4.93
2023-10-07T17:06:18.731Z,4.82
2023-10-07T17:08:47.826Z,4.78
2023-10-07T17:11:18.984Z,4.95
2023-10-07T17:13:49.150Z,4.70
2023-10-07T17:16:18.294Z,5.38
2023-10-07T17:18:46.668Z,4.55
2023-10-07T17:21:14.980Z,5.60
2023-10-07T17:23:42.428Z,5.22
2023-10-07T17:26:10.226Z,5.20
2023-10-07T17:28:37.646Z,5.63
2023-10-07T17:31:10.249Z,5.80
2023-10-07T17:33:41.719Z,5.53
2023-10-07T17:36:09.740Z,5.47
2023-10-07T17:38:37.492Z,5.65
2023-10-07T17:41:38.726Z,6.32
2023-10-07T17:44:07.426Z,6.10
2023-10-07T17:46:35.526Z,5.45
2023-10-07T17:49:04.096Z,6.25
2023-10-07T17:51:32.090Z,6.35
2023-10-07T17:53:59.696Z,6.20
2023-10-07T17:56:27.331Z,5.95
2023-10-07T17:58:55.060Z,6.90
2023-10-07T18:01:22.560Z,6.45
2023-10-07T18:03:55.100Z,7.20
2023-10-07T18:06:25.267Z,6.63
2023-10-07T18:08:52.800Z,6.50
2023-10-07T18:11:20.455Z,6.85
2023-10-07T18:13:48.176Z,7.43
2023-10-07T18:16:16.068Z,7.25
2023-10-07T18:18:43.630Z,8.23
2023-10-07T18:21:11.451Z,7.20
2023-10-07T18:23:39.776Z,7.43
2023-10-07T18:26:08.187Z,7.47
2023-10-07T18:29:05.203Z,7.68
2023-10-07T18:31:39.433Z,7.53
2023-10-07T18:34:12.470Z,7.65
2023-10-07T18:36:46.996Z,7.63
2023-10-07T18:39:17.578Z,7.95
2023-10-07T18:41:46.805Z,7.13
2023-10-07T18:44:14.674Z,7.63
2023-10-07T18:46:44.169Z,7.15
2023-10-07T18:49:13.073Z,7.80
2023-10-07T18:51:40.888Z,8.05
2023-10-07T18:54:08.347Z,8.35
2023-10-07T18:56:36.127Z,7.45
2023-10-07T18:59:06.195Z,7.55
2023-10-07T19:01:34.474Z,7.57
2023-10-07T19:04:06.506Z,7.93
2023-10-07T19:06:36.618Z,7.90
2023-10-07T19:09:05.067Z,7.40
2023-10-07T19:11:36.614Z,7.10
2023-10-07T19:14:05.835Z,7.70
2023-10-07T19:16:35.979Z,7.63
2023-10-07T19:19:06.951Z,7.40
2023-10-07T19:21:35.416Z,6.80
2023-10-07T19:24:02.817Z,7.28
2023-10-07T19:26:30.380Z,7.30
2023-10-07T19:28:57.795Z,7.45
2023-10-07T19:31:25.528Z,7.72
2023-10-07T19:33:57.955Z,6.97
2023-10-07T19:36:27.777Z,7.72
2023-10-07T19:38:55.237Z,7.35
2023-10-07T19:41:23.023Z,6.63
2023-10-07T19:43:57.341Z,7.32
2023-10-07T19:46:25.241Z,6.88
2023-10-07T19:48:52.886Z,7.55
2023-10-07T19:51:20.748Z,7.18
2023-10-07T19:53:51.257Z,6.88
2023-10-07T19:56:19.358Z,7.25
2023-10-07T19:58:46.762Z,7.05
2023-10-07T20:01:14.362Z,6.65
2023-10-07T20:03:42.065Z,6.85
2023-10-07T20:06:10.980Z,6.25
2023-10-07T20:08:41.337Z,7.07
2023-10-07T20:11:10.805Z,7.03
2023-10-07T20:13:38.887Z,6.72
2023-10-07T20:16:08.351Z,7.55
2023-10-07T20:18:35.783Z,7.80
2023-10-07T20:21:03.521Z,6.55
2023-10-07T20:23:30.988Z,6.47
2023-10-07T20:26:03.190Z,6.05
2023-10-07T20:28:30.726Z,6.38
2023-10-07T20:30:58.332Z,6.38
2023-10-07T20:33:26.086Z,6.38
2023-10-07T20:35:53.682Z,5.90
2023-10-07T20:38:21.785Z,6.22
2023-10-07T20:40:58.520Z,5.72
2023-10-07T20:43:28.809Z,5.70
2023-10-07T20:46:01.115Z,5.87
2023-10-07T20:48:33.469Z,5.90
2023-10-07T20:51:10.667Z,6.32
2023-10-07T20:53:40.612Z,5.43
2023-10-07T20:56:11.154Z,5.97
2023-10-07T20:58:39.272Z,6.05
2023-10-07T21:03:51.082Z,5.20
2023-10-07T21:06:21.528Z,5.90
2023-10-07T21:08:51.009Z,5.13
2023-10-07T21:11:24.922Z,4.75
2023-10-07T21:13:57.233Z,5.82
2023-10-07T21:16:25.606Z,5.32
2023-10-07T21:18:55.629Z,5.75
2023-10-07T21:21:24.247Z,5.13
2023-10-07T21:23:51.977Z,5.13
2023-10-07T21:26:24.548Z,5.28
2023-10-07T21:28:56.930Z,5.13
2023-10-07T21:31:32.132Z,4.68
2023-10-07T21:33:59.586Z,5.13
2023-10-07T21:36:27.561Z,4.82
2023-10-07T21:38:56.045Z,5.38
2023-10-07T21:41:23.641Z,4.70
2023-10-07T21:43:51.198Z,4.63
2023-10-07T21:46:20.744Z,4.50
2023-10-07T21:48:48.576Z,5.05
2023-10-07T21:51:20.513Z,4.55
2023-10-07T21:56:15.867Z,4.32
2023-10-07T21:58:43.938Z,4.35
2023-10-07T22:01:19.098Z,4.55
2023-10-07T22:03:49.520Z,4.45
2023-10-07T22:06:19.208Z,4.60
2023-10-07T22:08:48.432Z,4.60
2023-10-07T22:11:17.041Z,4.65
2023-10-07T22:13:44.782Z,3.92
2023-10-07T22:16:13.310Z,4.65
2023-10-07T22:18:40.961Z,4.65
2023-10-07T22:21:11.962Z,4.22
2023-10-07T22:23:39.711Z,4.28
2023-10-07T22:26:12.976Z,3.67
2023-10-07T22:28:40.898Z,4.63
2023-10-07T22:31:08.697Z,4.50
2023-10-07T22:33:36.577Z,3.90
2023-10-07T22:36:19.167Z,4.45
2023-10-07T22:38:54.977Z,4.60
2023-10-07T22:41:38.831Z,4.68
2023-10-07T22:44:22.699Z,3.92
2023-10-07T22:47:09.060Z,4.22
2023-10-07T22:49:37.178Z,4.22
2023-10-07T22:52:09.585Z,4.10
2023-10-07T22:54:50.968Z,4.35
2023-10-07T22:59:48.745Z,3.97
2023-10-07T23:02:30.584Z,4.38
2023-10-07T23:04:58.893Z,4.38
2023-10-07T23:07:26.489Z,4.20
2023-10-07T23:10:00.040Z,4.22
2023-10-07T23:12:40.049Z,4.47
2023-10-07T23:15:16.059Z,4.18
2023-10-07T23:17:44.007Z,4.30
2023-10-07T23:20:21.133Z,4.20
2023-10-07T23:22:48.766Z,4.60
2023-10-07T23:25:19.843Z,4.68
2023-10-07T23:30:29.140Z,4.50
2023-10-07T23:33:00.282Z,4.55
2023-10-07T23:35:33.921Z,4.20
2023-10-07T23:38:19.332Z,4.30
2023-10-07T23:40:53.220Z,4.78
2023-10-07T23:43:21.576Z,4.18
2023-10-07T23:45:52.779Z,4.72
2023-10-07T23:48:20.998Z,4.60
2023-10-07T23:50:58.136Z,4.38
2023-10-07T23:53:31.910Z,4.43
2023-10-07T23:56:07.420Z,4.25
2023-10-07T23:58:44.265Z,4.40
